createdAt,value
2023-05-22T00:01:06.056Z,69.77
2023-05-22T00:03:32.972Z,70.04
2023-05-22T00:05:59.646Z,70.09
2023-05-22T00:08:29.247Z,69.06
2023-05-22T00:11:00.188Z,69.66
2023-05-22T00:13:26.894Z,69.26
2023-05-22T00:15:53.557Z,69.36
2023-05-22T00:18:20.454Z,69.63
2023-05-22T00:20:47.059Z,70.52
2023-05-22T00:23:15.575Z,71.91
2023-05-22T00:25:42.558Z,71.55
2023-05-22T00:28:11.428Z,71.89
2023-05-22T00:30:38.392Z,71.76
2023-05-22T00:33:05.483Z,71.97
2023-05-22T00:35:33.527Z,71.54
2023-05-22T00:38:04.051Z,72.12
2023-05-22T00:40:30.964Z,70.67
2023-05-22T00:42:57.569Z,71.11
2023-05-22T00:45:25.655Z,70.53
2023-05-22T00:47:52.372Z,71.09
2023-05-22T00:50:19.718Z,71.21
2023-05-22T00:52:46.909Z,71.24
2023-05-22T00:55:14.861Z,69.55
2023-05-22T00:57:41.954Z,69.16
2023-05-22T01:00:11.705Z,69.82
2023-05-22T01:02:40.063Z,69.05
2023-05-22T01:05:07.520Z,70.04
2023-05-22T01:07:34.970Z,71.65
2023-05-22T01:10:01.633Z,72.28
2023-05-22T01:12:38.550Z,72.73
2023-05-22T01:15:15.361Z,73.82
2023-05-22T01:17:50.949Z,73.80
2023-05-22T01:20:25.379Z,75.25
2023-05-22T01:23:17.130Z,75.78
2023-05-22T01:26:03.433Z,77.00
2023-05-22T01:28:52.055Z,77.61
2023-05-22T01:31:24.006Z,78.62
2023-05-22T01:33:54.848Z,79.07
2023-05-22T01:36:24.618Z,79.24
2023-05-22T01:38:52.131Z,78.95
2023-05-22T01:41:19.083Z,79.87
2023-05-22T01:43:46.431Z,81.16
2023-05-22T01:46:13.238Z,81.79
2023-05-22T01:48:41.297Z,82.66
2023-05-22T01:51:15.204Z,83.47
2023-05-22T01:53:52.088Z,83.68
2023-05-22T01:56:24.353Z,84.03
2023-05-22T01:59:01.653Z,84.12
2023-05-22T02:01:32.474Z,83.32
2023-05-22T02:04:02.205Z,83.36
2023-05-22T02:06:31.387Z,82.76
2023-05-22T02:08:59.659Z,83.81
2023-05-22T02:11:27.836Z,84.12
2023-05-22T02:13:55.566Z,84.51
2023-05-22T02:16:23.149Z,85.62
2023-05-22T02:18:50.098Z,84.48
2023-05-22T02:21:18.474Z,83.71
2023-05-22T02:23:45.123Z,83.96
2023-05-22T02:26:11.923Z,85.27
2023-05-22T02:28:38.507Z,85.89
2023-05-22T02:31:05.187Z,87.20
2023-05-22T02:33:31.900Z,88.21
2023-05-22T02:35:58.531Z,87.96
2023-05-22T02:38:26.805Z,87.29
2023-05-22T02:40:53.572Z,87.51
2023-05-22T02:43:20.197Z,86.41
2023-05-22T02:45:46.879Z,86.35
2023-05-22T02:48:13.612Z,87.62
2023-05-22T02:50:40.508Z,89.71
2023-05-22T02:53:07.308Z,89.14
2023-05-22T02:55:35.739Z,90.17
2023-05-22T02:58:02.526Z,90.90
2023-05-22T03:00:29.183Z,91.81
2023-05-22T03:02:57.349Z,92.14
2023-05-22T03:05:24.008Z,92.01
2023-05-22T03:07:50.643Z,91.08
2023-05-22T03:10:17.782Z,89.14
2023-05-22T03:12:45.762Z,89.16
2023-05-22T03:15:12.398Z,90.04
2023-05-22T03:17:39.138Z,90.83
2023-05-22T03:20:07.410Z,91.50
2023-05-22T03:22:35.221Z,90.11
2023-05-22T03:25:02.013Z,90.57
2023-05-22T03:27:28.656Z,92.05
2023-05-22T03:29:56.665Z,93.16
2023-05-22T03:32:23.396Z,91.58
2023-05-22T03:34:50.116Z,92.92
2023-05-22T03:37:16.741Z,93.90
2023-05-22T03:39:43.532Z,94.00
2023-05-22T03:42:10.125Z,92.69
2023-05-22T03:44:36.738Z,93.36
2023-05-22T03:47:05.637Z,92.78
2023-05-22T03:49:32.292Z,92.40
2023-05-22T03:51:59.058Z,92.16
2023-05-22T03:54:25.658Z,91.70
2023-05-22T03:56:52.293Z,92.74
2023-05-22T03:59:18.953Z,93.56
2023-05-22T04:01:45.659Z,93.96
2023-05-22T04:04:13.902Z,92.00
2023-05-22T04:06:41.112Z,91.96
2023-05-22T04:09:07.704Z,93.29
2023-05-22T04:11:34.636Z,93.11
2023-05-22T04:14:03.517Z,91.84
2023-05-22T04:16:30.174Z,92.93
2023-05-22T04:18:57.075Z,94.20
2023-05-22T04:21:25.454Z,94.24
2023-05-22T04:23:52.045Z,93.32
2023-05-22T04:26:18.797Z,93.02
2023-05-22T04:28:45.466Z,93.54
2023-05-22T04:31:12.107Z,94.28
2023-05-22T04:33:38.951Z,95.03
2023-05-22T04:36:06.367Z,95.14
2023-05-22T04:38:34.752Z,95.33
2023-05-22T04:41:01.594Z,94.86
2023-05-22T04:43:28.264Z,94.42
2023-05-22T04:45:54.947Z,94.08
2023-05-22T04:48:21.837Z,93.35
2023-05-22T04:50:48.931Z,93.84
2023-05-22T04:53:15.730Z,94.06
2023-05-22T04:55:44.260Z,92.76
2023-05-22T04:58:10.925Z,89.99
2023-05-22T05:00:37.768Z,90.77
2023-05-22T05:03:04.938Z,92.41
2023-05-22T05:05:31.625Z,93.24
2023-05-22T05:07:58.268Z,93.33
2023-05-22T05:10:24.930Z,93.04
2023-05-22T05:12:53.231Z,92.79
2023-05-22T05:15:19.830Z,91.07
2023-05-22T05:17:46.583Z,90.26
2023-05-22T05:20:13.315Z,89.23
2023-05-22T05:22:40.006Z,87.87
2023-05-22T05:25:08.496Z,86.55
2023-05-22T05:27:36.219Z,84.12
2023-05-22T05:30:05.356Z,81.55
2023-05-22T05:32:32.440Z,79.47
2023-05-22T05:34:59.172Z,78.08
2023-05-22T05:37:25.786Z,77.40
2023-05-22T05:39:52.587Z,74.09
2023-05-22T05:42:19.349Z,73.09
2023-05-22T05:44:46.285Z,71.47
2023-05-22T05:47:14.667Z,70.50
2023-05-22T05:49:41.456Z,70.46
2023-05-22T05:52:08.107Z,70.42
2023-05-22T05:54:34.763Z,66.56
2023-05-22T05:57:01.474Z,65.36
2023-05-22T05:59:28.116Z,64.08
2023-05-22T06:01:54.753Z,61.85
2023-05-22T06:04:22.894Z,60.88
2023-05-22T06:06:49.552Z,59.84
2023-05-22T06:09:16.315Z,61.28
2023-05-22T06:11:43.052Z,61.75
2023-05-22T06:14:09.768Z,58.68
2023-05-22T06:16:37.807Z,56.33
2023-05-22T06:19:04.581Z,53.91
2023-05-22T06:21:32.949Z,53.53
2023-05-22T06:23:59.648Z,51.03
2023-05-22T06:26:26.495Z,49.06
2023-05-22T06:28:53.432Z,46.97
2023-05-22T06:31:20.141Z,45.88
2023-05-22T06:33:47.003Z,45.71
2023-05-22T06:36:14.129Z,44.04
2023-05-22T06:38:42.434Z,44.62
2023-05-22T06:41:09.370Z,44.98
2023-05-22T06:43:35.959Z,46.78
2023-05-22T06:46:02.765Z,46.52
2023-05-22T06:48:33.559Z,48.16
2023-05-22T06:51:00.296Z,50.04
2023-05-22T06:53:26.941Z,51.74
2023-05-22T06:55:55.721Z,54.12
2023-05-22T06:58:22.534Z,53.18
2023-05-22T07:00:49.175Z,53.71
2023-05-22T07:03:16.033Z,55.98
2023-05-22T07:05:42.740Z,57.86
2023-05-22T07:08:09.437Z,57.90
2023-05-22T07:10:36.208Z,59.41
2023-05-22T07:13:04.245Z,57.90
2023-05-22T07:15:30.849Z,55.91
2023-05-22T07:17:57.586Z,58.02
2023-05-22T07:20:24.207Z,59.46
2023-05-22T07:22:50.862Z,58.03
2023-05-22T07:25:17.658Z,59.93
2023-05-22T07:27:44.370Z,56.86
2023-05-22T07:30:13.421Z,59.36
2023-05-22T07:32:40.108Z,57.14
2023-05-22T07:35:07.426Z,57.78
2023-05-22T07:37:34.173Z,58.34
2023-05-22T07:40:01.126Z,58.01
2023-05-22T07:42:27.774Z,58.72
2023-05-22T07:44:54.395Z,59.31
2023-05-22T07:47:22.827Z,59.11
2023-05-22T07:49:49.546Z,56.52
2023-05-22T07:52:16.205Z,56.07
2023-05-22T07:54:44.266Z,52.55
2023-05-22T07:57:12.877Z,50.28
2023-05-22T07:59:39.623Z,48.75
2023-05-22T08:02:06.764Z,46.03
2023-05-22T08:04:34.840Z,49.27
2023-05-22T08:07:01.529Z,49.19
2023-05-22T08:09:28.176Z,45.87
2023-05-22T08:11:54.851Z,43.52
2023-05-22T08:14:22.210Z,44.04
2023-05-22T08:16:48.932Z,44.44
2023-05-22T08:19:15.857Z,43.65
2023-05-22T08:21:44.021Z,44.71
2023-05-22T08:24:10.785Z,42.18
2023-05-22T08:26:37.624Z,42.96
2023-05-22T08:29:04.462Z,41.41
2023-05-22T08:31:31.205Z,39.82
2023-05-22T08:33:58.147Z,41.16
2023-05-22T08:36:24.756Z,41.04
2023-05-22T08:38:52.962Z,41.42
2023-05-22T08:41:19.791Z,42.64
2023-05-22T08:43:46.472Z,41.60
2023-05-22T08:46:13.432Z,40.88
2023-05-22T08:48:40.408Z,40.59
2023-05-22T08:51:07.942Z,41.28
2023-05-22T08:53:35.848Z,40.40
2023-05-22T08:56:06.771Z,40.76
2023-05-22T08:58:36.076Z,41.44
2023-05-22T09:01:04.384Z,40.10
2023-05-22T09:03:31.908Z,41.77
2023-05-22T09:05:58.647Z,42.46
2023-05-22T09:08:25.346Z,42.03
2023-05-22T09:10:52.311Z,42.25
2023-05-22T09:13:28.044Z,43.20
2023-05-22T09:15:58.692Z,43.22
2023-05-22T09:18:27.445Z,44.40
2023-05-22T09:20:56.633Z,45.40
2023-05-22T09:23:23.693Z,45.45
2023-05-22T09:25:53.828Z,44.72
2023-05-22T09:28:20.473Z,44.10
2023-05-22T09:30:49.916Z,45.63
2023-05-22T09:33:16.578Z,42.72
2023-05-22T09:35:43.641Z,43.19
2023-05-22T09:38:12.029Z,44.65
2023-05-22T09:40:40.308Z,45.99
2023-05-22T09:43:07.622Z,45.72
2023-05-22T09:45:35.831Z,43.66
2023-05-22T09:48:04.587Z,45.51
2023-05-22T09:50:31.675Z,44.32
2023-05-22T09:53:01.912Z,46.71
2023-05-22T09:55:28.918Z,46.67
2023-05-22T09:57:56.875Z,46.68
2023-05-22T10:00:25.584Z,48.69
2023-05-22T10:02:57.973Z,48.46
2023-05-22T10:05:30.859Z,48.30
2023-05-22T10:08:05.023Z,48.23
2023-05-22T10:10:33.344Z,47.73
2023-05-22T10:13:03.237Z,47.59
2023-05-22T10:15:30.536Z,46.47
2023-05-22T10:17:59.414Z,46.50
2023-05-22T10:20:29.045Z,47.24
2023-05-22T10:22:56.500Z,47.90
2023-05-22T10:25:23.746Z,47.77
2023-05-22T10:27:53.554Z,47.78
2023-05-22T10:30:28.195Z,48.60
2023-05-22T10:33:00.913Z,48.01
2023-05-22T10:35:38.758Z,49.67
2023-05-22T10:38:26.040Z,48.70
2023-05-22T10:40:53.615Z,53.46
2023-05-22T10:43:23.392Z,51.29
2023-05-22T10:45:51.735Z,53.62
2023-05-22T10:48:21.722Z,50.74
2023-05-22T10:50:51.915Z,53.38
2023-05-22T10:53:20.314Z,55.08
2023-05-22T10:55:47.620Z,56.11
2023-05-22T10:58:14.341Z,60.85
2023-05-22T11:00:41.222Z,58.82
2023-05-22T11:03:17.749Z,60.09
2023-05-22T11:05:54.140Z,56.16
2023-05-22T11:08:36.537Z,56.91
2023-05-22T11:11:12.436Z,57.51
2023-05-22T11:13:39.538Z,58.68
2023-05-22T11:16:06.737Z,61.15
2023-05-22T11:18:33.692Z,59.00
2023-05-22T11:21:01.823Z,57.57
2023-05-22T11:23:28.491Z,59.10
2023-05-22T11:25:55.191Z,58.18
2023-05-22T11:28:23.535Z,56.90
2023-05-22T11:30:51.910Z,59.75
2023-05-22T11:33:18.748Z,62.43
2023-05-22T11:35:49.268Z,65.34
2023-05-22T11:38:17.875Z,66.81
2023-05-22T11:40:44.841Z,65.99
2023-05-22T11:43:11.957Z,66.03
2023-05-22T11:45:39.660Z,66.81
2023-05-22T11:48:08.654Z,66.57
2023-05-22T11:53:07.952Z,59.00
2023-05-22T11:55:36.343Z,55.52
2023-05-22T11:58:04.197Z,57.15
2023-05-22T12:00:31.659Z,56.32
2023-05-22T12:02:59.520Z,57.97
2023-05-22T12:05:26.757Z,60.33
2023-05-22T12:07:53.592Z,62.80
2023-05-22T12:10:20.332Z,62.31
2023-05-22T12:12:48.469Z,64.05
2023-05-22T12:15:18.696Z,62.00
2023-05-22T12:17:45.395Z,62.23
2023-05-22T12:20:13.440Z,60.05
2023-05-22T12:22:41.680Z,61.00
2023-05-22T12:25:14.037Z,63.74
2023-05-22T12:27:40.709Z,64.11
2023-05-22T12:30:13.473Z,69.38
2023-05-22T12:32:40.658Z,72.92
2023-05-22T12:35:15.434Z,72.42
2023-05-22T12:37:48.482Z,71.15
2023-05-22T12:40:16.616Z,72.09
2023-05-22T12:42:43.392Z,66.95
2023-05-22T12:45:11.979Z,69.88
2023-05-22T12:47:38.795Z,68.44
2023-05-22T12:50:06.700Z,73.67
2023-05-22T12:52:33.387Z,69.08
2023-05-22T12:55:00.047Z,67.50
2023-05-22T12:57:26.889Z,72.68
2023-05-22T12:59:53.834Z,70.61
2023-05-22T13:02:22.050Z,72.60
2023-05-22T13:04:48.687Z,70.93
2023-05-22T13:07:15.399Z,67.95
2023-05-22T13:09:42.386Z,67.50
2023-05-22T13:12:09.055Z,71.80
2023-05-22T13:14:35.692Z,71.50
2023-05-22T13:17:02.389Z,68.21
2023-05-22T13:19:30.612Z,65.42
2023-05-22T13:21:57.379Z,66.58
2023-05-22T13:24:24.358Z,67.74
2023-05-22T13:26:51.403Z,68.24
2023-05-22T13:29:18.016Z,69.42
2023-05-22T13:31:44.735Z,72.44
2023-05-22T13:34:11.460Z,73.62
2023-05-22T13:36:39.524Z,73.29
2023-05-22T13:39:06.347Z,70.84
2023-05-22T13:41:33.217Z,72.62
2023-05-22T13:43:59.949Z,69.47
2023-05-22T13:46:26.703Z,72.72
2023-05-22T13:48:53.343Z,67.72
2023-05-22T13:51:20.003Z,72.14
2023-05-22T13:53:48.157Z,68.35
2023-05-22T13:56:14.775Z,68.64
2023-05-22T13:58:41.386Z,64.47
2023-05-22T14:01:09.902Z,66.52
2023-05-22T14:03:36.609Z,64.99
2023-05-22T14:06:03.451Z,63.95
2023-05-22T14:08:30.201Z,63.34
2023-05-22T14:10:58.218Z,64.77
2023-05-22T14:13:25.181Z,62.75
2023-05-22T14:15:51.866Z,62.96
2023-05-22T14:18:18.674Z,62.53
2023-05-22T14:20:46.432Z,65.58
2023-05-22T14:23:13.331Z,66.11
2023-05-22T14:25:40.303Z,67.60
2023-05-22T14:28:08.515Z,68.43
2023-05-22T14:30:35.346Z,68.52
2023-05-22T14:33:01.989Z,67.23
2023-05-22T14:35:28.659Z,67.07
2023-05-22T14:37:55.407Z,69.59
2023-05-22T14:40:22.042Z,69.49
2023-05-22T14:42:48.855Z,66.84
2023-05-22T14:45:16.889Z,69.78
2023-05-22T14:47:43.604Z,69.41
2023-05-22T14:50:19.207Z,70.64
2023-05-22T14:52:47.361Z,70.31
2023-05-22T14:55:14.177Z,71.35
2023-05-22T14:57:40.805Z,67.16
2023-05-22T15:00:08.777Z,69.12
2023-05-22T15:02:37.094Z,68.78
2023-05-22T15:05:04.217Z,68.81
2023-05-22T15:07:42.964Z,70.71
2023-05-22T15:10:11.364Z,71.88
2023-05-22T15:12:38.144Z,71.73
2023-05-22T15:15:05.572Z,70.34
2023-05-22T15:17:32.218Z,68.42
2023-05-22T15:20:00.386Z,67.85
2023-05-22T15:22:26.986Z,66.80
2023-05-22T15:25:03.984Z,64.67
2023-05-22T15:27:30.689Z,63.35
2023-05-22T15:29:57.342Z,66.41
2023-05-22T15:32:24.081Z,62.59
2023-05-22T15:34:50.688Z,61.98
2023-05-22T15:37:19.097Z,61.45
2023-05-22T15:39:46.004Z,62.03
2023-05-22T15:42:12.666Z,58.29
2023-05-22T15:44:39.335Z,59.72
2023-05-22T15:47:06.434Z,58.21
2023-05-22T15:49:33.097Z,62.74
2023-05-22T15:52:00.847Z,59.63
2023-05-22T15:54:28.917Z,58.51
2023-05-22T15:56:55.520Z,64.73
2023-05-22T15:59:22.208Z,59.74
2023-05-22T16:01:49.158Z,60.42
2023-05-22T16:04:16.202Z,61.39
2023-05-22T16:06:42.861Z,56.92
2023-05-22T16:09:09.695Z,56.18
2023-05-22T16:11:38.288Z,56.72
2023-05-22T16:14:05.125Z,56.25
2023-05-22T16:16:31.962Z,54.19
2023-05-22T16:18:58.768Z,55.55
2023-05-22T16:21:25.440Z,55.78
2023-05-22T16:23:52.390Z,55.03
2023-05-22T16:26:18.990Z,55.75
2023-05-22T16:28:46.991Z,54.94
2023-05-22T16:31:13.720Z,56.97
2023-05-22T16:33:40.335Z,53.93
2023-05-22T16:36:07.650Z,56.42
2023-05-22T16:38:34.478Z,55.51
2023-05-22T16:41:01.149Z,55.83
2023-05-22T16:43:27.817Z,55.65
2023-05-22T16:45:56.163Z,55.60
2023-05-22T16:48:22.857Z,55.30
2023-05-22T16:50:49.503Z,56.20
2023-05-22T16:53:16.203Z,58.21
2023-05-22T16:55:43.073Z,55.98
2023-05-22T16:58:10.135Z,57.05
2023-05-22T17:00:37.167Z,58.07
2023-05-22T17:03:06.177Z,55.49
2023-05-22T17:05:33.234Z,53.09
2023-05-22T17:08:00.028Z,53.08
2023-05-22T17:10:26.985Z,54.77
2023-05-22T17:12:53.665Z,55.85
2023-05-22T17:15:20.986Z,56.76
2023-05-22T17:17:47.755Z,55.01
2023-05-22T17:20:15.914Z,55.43
2023-05-22T17:22:45.494Z,55.41
2023-05-22T17:25:12.112Z,56.61
2023-05-22T17:27:38.835Z,55.11
2023-05-22T17:30:06.976Z,55.74
2023-05-22T17:32:33.984Z,57.36
2023-05-22T17:35:01.633Z,56.83
2023-05-22T17:37:29.810Z,58.91
2023-05-22T17:39:56.435Z,57.22
2023-05-22T17:42:23.109Z,58.01
2023-05-22T17:44:49.846Z,57.57
2023-05-22T17:47:16.727Z,56.85
2023-05-22T17:49:43.429Z,58.16
2023-05-22T17:52:10.207Z,57.99
2023-05-22T17:54:38.187Z,58.17
2023-05-22T17:57:05.092Z,57.98
2023-05-22T17:59:32.509Z,58.83
2023-05-22T18:01:59.195Z,58.44
2023-05-22T18:04:25.958Z,58.22
2023-05-22T18:06:52.683Z,58.82
2023-05-22T18:09:19.354Z,60.08
2023-05-22T18:11:47.429Z,58.17
2023-05-22T18:14:14.151Z,59.01
2023-05-22T18:16:40.771Z,57.80
2023-05-22T18:19:07.433Z,58.31
2023-05-22T18:21:34.243Z,59.10
2023-05-22T18:24:00.932Z,59.17
2023-05-22T18:26:27.546Z,59.48
2023-05-22T18:28:55.555Z,59.62
2023-05-22T18:31:22.206Z,58.66
2023-05-22T18:33:48.844Z,59.79
2023-05-22T18:36:15.711Z,59.40
2023-05-22T18:38:42.494Z,60.29
2023-05-22T18:41:09.179Z,59.94
2023-05-22T18:43:35.830Z,61.21
2023-05-22T18:46:04.248Z,62.80
2023-05-22T18:48:31.121Z,61.54
2023-05-22T18:50:58.274Z,62.40
2023-05-22T18:53:24.959Z,62.04
2023-05-22T18:55:51.654Z,62.66
2023-05-22T18:58:18.352Z,64.25
2023-05-22T19:00:45.117Z,65.34
2023-05-22T19:03:13.205Z,64.40
2023-05-22T19:05:39.937Z,64.54
2023-05-22T19:08:07.321Z,64.25
2023-05-22T19:10:33.960Z,64.74
2023-05-22T19:13:00.731Z,65.87
2023-05-22T19:15:27.357Z,66.06
2023-05-22T19:17:54.094Z,64.15
2023-05-22T19:20:23.050Z,63.87
2023-05-22T19:22:49.724Z,63.26
2023-05-22T19:25:16.322Z,65.07
2023-05-22T19:27:43.124Z,65.89
2023-05-22T19:30:10.467Z,65.60
2023-05-22T19:32:37.097Z,65.93
2023-05-22T19:35:04.109Z,65.51
2023-05-22T19:37:32.126Z,66.10
2023-05-22T19:39:58.811Z,66.88
2023-05-22T19:42:25.486Z,66.66
2023-05-22T19:44:52.132Z,66.26
2023-05-22T19:47:18.774Z,66.88
2023-05-22T19:49:45.417Z,66.45
2023-05-22T19:52:12.133Z,66.16
2023-05-22T19:54:40.194Z,66.66
2023-05-22T19:57:06.811Z,66.19
2023-05-22T19:59:35.813Z,66.69
2023-05-22T20:02:03.308Z,66.66
2023-05-22T20:04:30.341Z,67.93
2023-05-22T20:06:57.004Z,68.09
2023-05-22T20:09:23.664Z,68.30
2023-05-22T20:11:51.724Z,68.16
2023-05-22T20:14:19.417Z,68.88
2023-05-22T20:16:46.341Z,68.63
2023-05-22T20:19:13.294Z,67.83
2023-05-22T20:21:40.173Z,67.08
2023-05-22T20:24:15.187Z,67.84
2023-05-22T20:26:41.807Z,69.36
2023-05-22T20:29:09.812Z,69.68
2023-05-22T20:31:36.658Z,69.25
2023-05-22T20:34:03.327Z,69.71
2023-05-22T20:36:30.283Z,70.60
2023-05-22T20:38:57.113Z,70.56
2023-05-22T20:41:23.930Z,70.43
2023-05-22T20:43:50.617Z,71.42
2023-05-22T20:46:18.673Z,71.77
2023-05-22T20:48:45.437Z,72.64
2023-05-22T20:51:12.142Z,72.12
2023-05-22T20:53:38.820Z,73.38
2023-05-22T20:56:05.550Z,74.10
2023-05-22T20:58:32.261Z,73.88
2023-05-22T21:00:59.016Z,75.17
2023-05-22T21:03:27.085Z,76.10
2023-05-22T21:05:53.915Z,75.59
2023-05-22T21:08:20.919Z,76.08
2023-05-22T21:10:47.824Z,75.22
2023-05-22T21:13:14.739Z,77.67
2023-05-22T21:15:41.401Z,78.57
2023-05-22T21:18:08.291Z,78.38
2023-05-22T21:20:36.725Z,79.37
2023-05-22T21:23:05.025Z,80.35
2023-05-22T21:25:31.732Z,79.62
2023-05-22T21:27:58.454Z,79.79
2023-05-22T21:30:25.222Z,80.45
2023-05-22T21:32:51.960Z,80.96
2023-05-22T21:35:18.765Z,82.36
2023-05-22T21:37:46.743Z,82.26
2023-05-22T21:40:13.572Z,82.42
2023-05-22T21:42:46.422Z,81.98
2023-05-22T21:45:14.063Z,80.74
2023-05-22T21:47:40.922Z,81.36
2023-05-22T21:50:08.204Z,81.19
2023-05-22T21:52:34.849Z,80.87
2023-05-22T21:55:02.974Z,80.63
2023-05-22T21:57:30.725Z,80.40
2023-05-22T21:59:57.356Z,82.23
2023-05-22T22:02:24.385Z,83.84
2023-05-22T22:04:51.090Z,83.86
2023-05-22T22:07:17.855Z,83.96
2023-05-22T22:09:44.591Z,85.38
2023-05-22T22:12:12.654Z,85.80
2023-05-22T22:14:40.364Z,86.48
2023-05-22T22:17:08.142Z,86.47
2023-05-22T22:19:36.021Z,85.43
2023-05-22T22:22:03.077Z,84.54
2023-05-22T22:24:30.059Z,84.73
2023-05-22T22:26:56.660Z,85.33
2023-05-22T22:29:24.729Z,85.31
2023-05-22T22:31:51.554Z,84.05
2023-05-22T22:34:18.337Z,84.53
2023-05-22T22:36:44.968Z,85.38
2023-05-22T22:39:12.638Z,85.94
2023-05-22T22:41:39.234Z,87.08
2023-05-22T22:44:06.082Z,87.65
2023-05-22T22:46:34.196Z,88.04
2023-05-22T22:49:00.992Z,87.78
2023-05-22T22:51:27.888Z,88.63
2023-05-22T22:53:56.415Z,87.92
2023-05-22T22:56:23.211Z,87.98
2023-05-22T22:58:49.816Z,88.54
2023-05-22T23:01:16.785Z,89.40
2023-05-22T23:03:44.878Z,90.65
2023-05-22T23:06:11.502Z,92.04
2023-05-22T23:08:38.345Z,92.41
2023-05-22T23:11:05.363Z,91.98
2023-05-22T23:13:32.069Z,92.91
2023-05-22T23:15:58.887Z,94.13
2023-05-22T23:18:25.625Z,94.49
2023-05-22T23:20:53.792Z,94.22
2023-05-22T23:23:20.553Z,94.25
2023-05-22T23:25:47.706Z,93.73
2023-05-22T23:28:14.715Z,94.38
2023-05-22T23:30:41.591Z,94.99
2023-05-22T23:33:08.327Z,95.74
2023-05-22T23:35:35.142Z,96.21
2023-05-22T23:38:03.456Z,96.48
2023-05-22T23:40:30.051Z,97.11
2023-05-22T23:42:56.781Z,97.20
2023-05-22T23:45:23.493Z,97.04
2023-05-22T23:47:50.334Z,97.14
2023-05-22T23:50:17.350Z,97.12
2023-05-22T23:52:43.972Z,97.26
2023-05-22T23:55:12.331Z,97.57
2023-05-22T23:57:39.028Z,98.42
